NCAR-RAP Real-Time Weather Data

Output produced by METARs form (06 May 2021  15:10 UTC)
found at http://weather.rap.ucar.edu/surface/
 
KSLN 061453Z 35009KT 10SM CLR 11/04 A3036 RMK AO2 SLP281 T01110044 51023
KSLN 061353Z 34013KT 10SM CLR 10/05 A3035 RMK AO2 SLP278 T01000050
KSLN 061253Z 35014KT 10SM CLR 08/05 A3033 RMK AO2 SLP271 T00830050
KSLN 061153Z 33010KT 10SM CLR 08/06 A3029 RMK AO2 SLP256 70008 T00780056 10106 20067 53028
KSLN 061053Z AUTO 35008KT 10SM CLR 08/06 A3025 RMK AO2 SLP241 T00830061
KSLN 060953Z AUTO 33010KT 10SM CLR 08/06 A3023 RMK AO2 SLP232 T00830061
KSLN 060853Z AUTO 31008KT 10SM CLR 08/07 A3020 RMK AO2 SLP224 T00830067 53008
KSLN 060753Z AUTO 28005KT 10SM CLR 09/07 A3019 RMK AO2 SLP221 T00890067
KSLN 060653Z AUTO 00000KT 10SM CLR 09/06 A3018 RMK AO2 SLP217 T00940061
KSLN 060553Z AUTO 22004KT 10SM CLR 11/06 A3018 RMK AO2 SLP218 60006 T01060061 10189 20106 402220022 51014
KSLN 060453Z AUTO 22007KT 10SM CLR 11/07 A3016 RMK AO2 SLP211 T01110072
KSLN 060353Z 20010KT 10SM CLR 13/07 A3016 RMK AO2 SLP208 T01330072
KSLN 060253Z 19007KT 10SM CLR 13/08 A3014 RMK AO2 RAE19 SLP202 P0003 60006 T01280083 51015
KSLN 060224Z 17010KT 10SM FEW065 FEW080 SCT110 14/09 A3011 RMK AO2 RAE19 P0003 T01390089
KSLN 060153Z 13006KT 10SM VCTS -RA OVC075 16/09 A3013 RMK AO2 RAB28 SLP199 P0002 T01560089
KSLN 060139Z 13004KT 10SM -RA BKN075 BKN095 BKN120 16/08 A3012 RMK AO2 RAB28 P0001 T01560078
KSLN 060124Z 17009KT 10SM VCTS FEW050 SCT120 15/08 A3009 RMK AO2 T01500078
KSLN 060053Z 18007KT 10SM FEW028 SCT090 16/08 A3009 RMK AO2 RAB28E43 SLP190 P0001 T01610078